Terminal Aerodrome Forecast
Issued by NWS

Home | Current Version | Previous Version | Text Only | Print | Product List | Glossary On
Versions: 1 2 3 4 5 6 7 8 9 10 11 12 13 14 15 16 17 18 19 20
000
FTPA31 PHFO 201138
TAFHNY
TAF
PHNY 201138Z 2012/2112 04010KT P6SM VCSH SCT015 BKN035 OVC150
     FM202200 05012KT P6SM SCT020 BKN035
     FM210200 05017G24KT P6SM SCT025 BKN250=

USA.gov is the U.S. government's official web portal to all federal, state and local government web resources and services.